sensor_id;sensor_type;location;lat;lon;timestamp;pressure;altitude;pressure_sealevel;temperature;humidity
54994;BME280;40891;47.242;8.648;2024-03-25T00:01:05;95900.38;;;5.09;100.00
54994;BME280;40891;47.242;8.648;2024-03-25T00:03:30;95895.50;;;5.17;100.00
54994;BME280;40891;47.242;8.648;2024-03-25T00:05:55;95897.81;;;5.18;100.00
54994;BME280;40891;47.242;8.648;2024-03-25T00:08:22;95900.06;;;5.23;100.00
54994;BME280;40891;47.242;8.648;2024-03-25T00:10:47;95893.19;;;5.15;100.00
54994;BME280;40891;47.242;8.648;2024-03-25T00:13:13;95888.34;;;5.19;100.00
54994;BME280;40891;47.242;8.648;2024-03-25T00:15:38;95886.78;;;5.18;100.00
54994;BME280;40891;47.242;8.648;2024-03-25T00:18:04;95886.19;;;5.27;100.00
54994;BME280;40891;47.242;8.648;2024-03-25T00:20:29;95881.09;;;5.25;100.00
54994;BME280;40891;47.242;8.648;2024-03-25T00:22:54;95883.69;;;5.32;100.00
54994;BME280;40891;47.242;8.648;2024-03-25T00:25:20;95884.31;;;5.24;100.00
54994;BME280;40891;47.242;8.648;2024-03-25T00:27:45;95874.31;;;5.14;100.00
54994;BME280;40891;47.242;8.648;2024-03-25T00:30:11;95866.56;;;5.25;100.00
54994;BME280;40891;47.242;8.648;2024-03-25T00:32:36;95871.53;;;5.14;100.00
54994;BME280;40891;47.242;8.648;2024-03-25T00:35:02;95868.09;;;5.10;100.00
54994;BME280;40891;47.242;8.648;2024-03-25T00:37:27;95863.88;;;5.05;100.00
54994;BME280;40891;47.242;8.648;2024-03-25T00:39:53;95876.03;;;5.08;100.00
54994;BME280;40891;47.242;8.648;2024-03-25T00:42:19;95863.88;;;5.05;100.00
54994;BME280;40891;47.242;8.648;2024-03-25T00:44:44;95868.56;;;5.08;100.00
54994;BME280;40891;47.242;8.648;2024-03-25T00:47:09;95862.50;;;4.97;100.00
54994;BME280;40891;47.242;8.648;2024-03-25T00:49:35;95849.44;;;5.01;100.00
54994;BME280;40891;47.242;8.648;2024-03-25T00:52:00;95847.53;;;4.98;100.00
54994;BME280;40891;47.242;8.648;2024-03-25T00:54:25;95845.56;;;4.99;100.00
54994;BME280;40891;47.242;8.648;2024-03-25T00:56:51;95837.34;;;4.95;100.00
54994;BME280;40891;47.242;8.648;2024-03-25T00:59:17;95839.09;;;4.89;100.00
54994;BME280;40891;47.242;8.648;2024-03-25T01:01:42;95843.75;;;4.92;100.00
54994;BME280;40891;47.242;8.648;2024-03-25T01:04:08;95834.53;;;4.99;100.00
54994;BME280;40891;47.242;8.648;2024-03-25T01:06:33;95839.25;;;4.98;100.00
54994;BME280;40891;47.242;8.648;2024-03-25T01:08:58;95833.66;;;5.02;100.00
54994;BME280;40891;47.242;8.648;2024-03-25T01:11:24;95830.81;;;4.89;100.00
54994;BME280;40891;47.242;8.648;2024-03-25T01:13:49;95827.72;;;4.87;100.00
54994;BME280;40891;47.242;8.648;2024-03-25T01:16:14;95825.72;;;4.88;100.00
54994;BME280;40891;47.242;8.648;2024-03-25T01:18:40;95831.16;;;4.91;100.00
54994;BME280;40891;47.242;8.648;2024-03-25T01:21:05;95827.56;;;4.94;100.00
54994;BME280;40891;47.242;8.648;2024-03-25T01:23:31;95821.00;;;5.04;100.00
54994;BME280;40891;47.242;8.648;2024-03-25T01:25:56;95817.66;;;4.97;100.00
54994;BME280;40891;47.242;8.648;2024-03-25T01:28:21;95809.41;;;4.97;100.00
54994;BME280;40891;47.242;8.648;2024-03-25T01:30:47;95808.63;;;4.96;100.00
54994;BME280;40891;47.242;8.648;2024-03-25T01:33:13;95806.03;;;4.89;100.00
54994;BME280;40891;47.242;8.648;2024-03-25T01:35:38;95803.81;;;4.84;100.00
54994;BME280;40891;47.242;8.648;2024-03-25T01:38:04;95805.44;;;4.81;100.00
54994;BME280;40891;47.242;8.648;2024-03-25T01:40:30;95798.97;;;4.88;100.00
54994;BME280;40891;47.242;8.648;2024-03-25T01:43:02;95800.88;;;4.91;100.00
54994;BME280;40891;47.242;8.648;2024-03-25T01:45:35;95798.19;;;4.88;100.00
54994;BME280;40891;47.242;8.648;2024-03-25T01:48:03;95809.31;;;4.84;100.00
54994;BME280;40891;47.242;8.648;2024-03-25T01:50:30;95802.06;;;4.90;100.00
54994;BME280;40891;47.242;8.648;2024-03-25T01:52:58;95795.81;;;4.90;100.00
54994;BME280;40891;47.242;8.648;2024-03-25T01:55:28;95788.41;;;4.87;100.00
54994;BME280;40891;47.242;8.648;2024-03-25T01:57:54;95782.44;;;4.88;100.00
54994;BME280;40891;47.242;8.648;2024-03-25T02:00:21;95775.66;;;4.93;100.00
54994;BME280;40891;47.242;8.648;2024-03-25T02:02:47;95775.56;;;4.96;100.00
54994;BME280;40891;47.242;8.648;2024-03-25T02:05:15;95782.88;;;5.03;100.00
54994;BME280;40891;47.242;8.648;2024-03-25T02:07:40;95784.19;;;4.98;100.00
54994;BME280;40891;47.242;8.648;2024-03-25T02:10:07;95774.91;;;4.92;100.00
54994;BME280;40891;47.242;8.648;2024-03-25T02:12:36;95771.78;;;4.90;100.00
54994;BME280;40891;47.242;8.648;2024-03-25T02:15:01;95767.31;;;4.80;100.00
54994;BME280;40891;47.242;8.648;2024-03-25T02:17:27;95768.06;;;4.80;100.00
54994;BME280;40891;47.242;8.648;2024-03-25T02:19:52;95775.81;;;4.86;100.00
54994;BME280;40891;47.242;8.648;2024-03-25T02:22:18;95765.50;;;4.73;100.00
54994;BME280;40891;47.242;8.648;2024-03-25T02:24:45;95764.19;;;4.78;100.00
54994;BME280;40891;47.242;8.648;2024-03-25T02:27:11;95757.22;;;4.73;100.00
54994;BME280;40891;47.242;8.648;2024-03-25T02:29:40;95756.31;;;4.80;100.00
54994;BME280;40891;47.242;8.648;2024-03-25T02:32:06;95757.50;;;4.79;100.00
54994;BME280;40891;47.242;8.648;2024-03-25T02:34:31;95755.25;;;4.74;100.00
54994;BME280;40891;47.242;8.648;2024-03-25T02:36:57;95750.59;;;4.71;100.00
54994;BME280;40891;47.242;8.648;2024-03-25T02:39:22;95749.13;;;4.66;100.00
54994;BME280;40891;47.242;8.648;2024-03-25T02:41:49;95750.03;;;4.63;100.00
54994;BME280;40891;47.242;8.648;2024-03-25T02:44:15;95743.91;;;4.56;100.00
54994;BME280;40891;47.242;8.648;2024-03-25T02:46:41;95737.09;;;4.60;100.00
54994;BME280;40891;47.242;8.648;2024-03-25T02:49:06;95736.50;;;4.53;100.00
54994;BME280;40891;47.242;8.648;2024-03-25T02:51:31;95742.00;;;4.53;100.00
54994;BME280;40891;47.242;8.648;2024-03-25T02:53:57;95745.25;;;4.48;100.00
54994;BME280;40891;47.242;8.648;2024-03-25T02:56:22;95739.50;;;4.42;100.00
54994;BME280;40891;47.242;8.648;2024-03-25T02:58:47;95744.91;;;4.46;100.00
54994;BME280;40891;47.242;8.648;2024-03-25T03:01:15;95748.53;;;4.43;100.00
54994;BME280;40891;47.242;8.648;2024-03-25T03:03:41;95742.66;;;4.41;100.00
54994;BME280;40891;47.242;8.648;2024-03-25T03:06:06;95743.00;;;4.43;100.00
54994;BME280;40891;47.242;8.648;2024-03-25T03:08:31;95738.22;;;4.47;100.00
54994;BME280;40891;47.242;8.648;2024-03-25T03:10:57;95731.16;;;4.46;100.00
54994;BME280;40891;47.242;8.648;2024-03-25T03:13:22;95735.22;;;4.57;100.00
54994;BME280;40891;47.242;8.648;2024-03-25T03:15:47;95734.25;;;4.48;100.00
54994;BME280;40891;47.242;8.648;2024-03-25T03:18:13;95729.63;;;4.45;100.00
54994;BME280;40891;47.242;8.648;2024-03-25T03:20:38;95727.38;;;4.40;100.00
54994;BME280;40891;47.242;8.648;2024-03-25T03:23:04;95722.28;;;4.38;100.00
54994;BME280;40891;47.242;8.648;2024-03-25T03:25:29;95725.91;;;4.35;100.00
54994;BME280;40891;47.242;8.648;2024-03-25T03:27:56;95725.13;;;4.35;100.00
54994;BME280;40891;47.242;8.648;2024-03-25T03:30:21;95719.63;;;4.35;100.00
54994;BME280;40891;47.242;8.648;2024-03-25T03:32:46;95720.03;;;4.33;100.00
54994;BME280;40891;47.242;8.648;2024-03-25T03:35:12;95718.06;;;4.34;100.00
54994;BME280;40891;47.242;8.648;2024-03-25T03:37:37;95713.25;;;4.38;100.00
54994;BME280;40891;47.242;8.648;2024-03-25T03:40:03;95721.78;;;4.43;100.00
54994;BME280;40891;47.242;8.648;2024-03-25T03:42:31;95712.50;;;4.37;100.00
54994;BME280;40891;47.242;8.648;2024-03-25T03:44:56;95713.19;;;4.41;100.00
54994;BME280;40891;47.242;8.648;2024-03-25T03:47:21;95716.00;;;4.38;100.00
54994;BME280;40891;47.242;8.648;2024-03-25T03:49:47;95714.19;;;4.31;100.00
54994;BME280;40891;47.242;8.648;2024-03-25T03:52:12;95719.81;;;4.28;100.00
54994;BME280;40891;47.242;8.648;2024-03-25T03:54:37;95708.09;;;4.24;100.00
54994;BME280;40891;47.242;8.648;2024-03-25T03:57:04;95709.31;;;4.23;100.00
54994;BME280;40891;47.242;8.648;2024-03-25T03:59:30;95704.91;;;4.25;100.00
54994;BME280;40891;47.242;8.648;2024-03-25T04:01:55;95710.31;;;4.29;100.00
54994;BME280;40891;47.242;8.648;2024-03-25T04:04:21;95703.63;;;4.30;100.00
54994;BME280;40891;47.242;8.648;2024-03-25T04:06:46;95705.94;;;4.31;100.00
54994;BME280;40891;47.242;8.648;2024-03-25T04:09:11;95702.41;;;4.31;100.00
54994;BME280;40891;47.242;8.648;2024-03-25T04:11:37;95704.31;;;4.34;100.00
54994;BME280;40891;47.242;8.648;2024-03-25T04:14:02;95698.81;;;4.34;100.00
54994;BME280;40891;47.242;8.648;2024-03-25T04:16:28;95702.41;;;4.31;100.00
54994;BME280;40891;47.242;8.648;2024-03-25T04:18:55;95696.22;;;4.27;100.00
54994;BME280;40891;47.242;8.648;2024-03-25T04:21:21;95697.44;;;4.26;100.00
54994;BME280;40891;47.242;8.648;2024-03-25T04:23:47;95704.47;;;4.27;100.00
54994;BME280;40891;47.242;8.648;2024-03-25T04:26:14;95702.69;;;4.20;100.00
54994;BME280;40891;47.242;8.648;2024-03-25T04:28:39;95708.00;;;4.11;100.00
54994;BME280;40891;47.242;8.648;2024-03-25T04:31:07;95707.16;;;4.14;100.00
54994;BME280;40891;47.242;8.648;2024-03-25T04:33:33;95697.94;;;4.04;100.00
54994;BME280;40891;47.242;8.648;2024-03-25T04:35:58;95704.63;;;4.03;100.00
54994;BME280;40891;47.242;8.648;2024-03-25T04:38:23;95699.19;;;4.00;100.00
54994;BME280;40891;47.242;8.648;2024-03-25T04:40:49;95702.53;;;3.91;100.00
54994;BME280;40891;47.242;8.648;2024-03-25T04:43:15;95705.38;;;3.88;100.00
54994;BME280;40891;47.242;8.648;2024-03-25T04:45:40;95693.78;;;3.96;100.00
54994;BME280;40891;47.242;8.648;2024-03-25T04:48:06;95700.41;;;3.99;100.00
54994;BME280;40891;47.242;8.648;2024-03-25T04:50:33;95701.94;;;4.00;100.00
54994;BME280;40891;47.242;8.648;2024-03-25T04:52:58;95698.09;;;3.97;100.00
54994;BME280;40891;47.242;8.648;2024-03-25T04:55:24;95699.72;;;3.95;100.00
54994;BME280;40891;47.242;8.648;2024-03-25T04:57:49;95698.66;;;3.89;100.00
54994;BME280;40891;47.242;8.648;2024-03-25T05:00:14;95696.16;;;3.78;100.00
54994;BME280;40891;47.242;8.648;2024-03-25T05:02:40;95693.25;;;3.85;100.00
54994;BME280;40891;47.242;8.648;2024-03-25T05:05:05;95691.06;;;3.77;100.00
54994;BME280;40891;47.242;8.648;2024-03-25T05:07:32;95684.88;;;3.73;100.00
54994;BME280;40891;47.242;8.648;2024-03-25T05:09:57;95689.25;;;3.70;100.00
54994;BME280;40891;47.242;8.648;2024-03-25T05:12:23;95679.44;;;3.69;100.00
54994;BME280;40891;47.242;8.648;2024-03-25T05:14:48;95684.09;;;3.72;100.00
54994;BME280;40891;47.242;8.648;2024-03-25T05:17:13;95680.31;;;3.66;100.00
54994;BME280;40891;47.242;8.648;2024-03-25T05:19:39;95684.34;;;3.62;100.00
54994;BME280;40891;47.242;8.648;2024-03-25T05:22:04;95680.47;;;3.59;100.00
54994;BME280;40891;47.242;8.648;2024-03-25T05:24:30;95673.06;;;3.56;100.00
54994;BME280;40891;47.242;8.648;2024-03-25T05:26:55;95680.03;;;3.61;100.00
54994;BME280;40891;47.242;8.648;2024-03-25T05:29:21;95678.84;;;3.62;100.00
54994;BME280;40891;47.242;8.648;2024-03-25T05:31:57;95675.13;;;3.52;100.00
54994;BME280;40891;47.242;8.648;2024-03-25T05:34:23;95674.97;;;3.59;100.00
54994;BME280;40891;47.242;8.648;2024-03-25T05:36:48;95682.22;;;3.50;100.00
54994;BME280;40891;47.242;8.648;2024-03-25T05:39:14;95677.50;;;3.50;100.00
54994;BME280;40891;47.242;8.648;2024-03-25T05:41:39;95679.53;;;3.46;100.00
54994;BME280;40891;47.242;8.648;2024-03-25T05:44:04;95680.75;;;3.45;100.00
54994;BME280;40891;47.242;8.648;2024-03-25T05:46:30;95674.91;;;3.43;100.00
54994;BME280;40891;47.242;8.648;2024-03-25T05:48:55;95675.75;;;3.40;100.00
54994;BME280;40891;47.242;8.648;2024-03-25T05:51:20;95671.78;;;3.41;100.00
54994;BME280;40891;47.242;8.648;2024-03-25T05:53:45;95676.16;;;3.38;100.00
54994;BME280;40891;47.242;8.648;2024-03-25T05:56:11;95672.50;;;3.45;100.00
54994;BME280;40891;47.242;8.648;2024-03-25T05:58:36;95669.63;;;3.52;100.00
54994;BME280;40891;47.242;8.648;2024-03-25T06:01:01;95667.13;;;3.58;100.00
54994;BME280;40891;47.242;8.648;2024-03-25T06:03:29;95666.91;;;3.68;100.00
54994;BME280;40891;47.242;8.648;2024-03-25T06:05:54;95663.50;;;3.80;100.00
54994;BME280;40891;47.242;8.648;2024-03-25T06:08:19;95658.97;;;3.90;100.00
54994;BME280;40891;47.242;8.648;2024-03-25T06:10:51;95655.63;;;3.98;100.00
54994;BME280;40891;47.242;8.648;2024-03-25T06:13:17;95661.66;;;4.09;100.00
54994;BME280;40891;47.242;8.648;2024-03-25T06:15:43;95660.06;;;4.28;100.00
54994;BME280;40891;47.242;8.648;2024-03-25T06:18:08;95657.03;;;4.39;100.00
54994;BME280;40891;47.242;8.648;2024-03-25T06:20:33;95650.56;;;4.45;100.00
54994;BME280;40891;47.242;8.648;2024-03-25T06:22:59;95654.78;;;4.50;100.00
54994;BME280;40891;47.242;8.648;2024-03-25T06:25:24;95636.56;;;4.56;100.00
54994;BME280;40891;47.242;8.648;2024-03-25T06:27:49;95632.06;;;4.62;100.00
54994;BME280;40891;47.242;8.648;2024-03-25T06:30:15;95629.47;;;4.71;100.00
54994;BME280;40891;47.242;8.648;2024-03-25T06:33:00;95632.47;;;4.76;100.00
54994;BME280;40891;47.242;8.648;2024-03-25T06:35:44;95624.28;;;4.89;100.00
54994;BME280;40891;47.242;8.648;2024-03-25T06:38:10;95628.56;;;4.90;100.00
54994;BME280;40891;47.242;8.648;2024-03-25T06:40:36;95627.63;;;4.97;100.00
54994;BME280;40891;47.242;8.648;2024-03-25T06:43:02;95627.66;;;5.09;100.00
54994;BME280;40891;47.242;8.648;2024-03-25T06:45:27;95609.25;;;5.06;100.00
54994;BME280;40891;47.242;8.648;2024-03-25T06:47:52;95611.19;;;5.22;100.00
54994;BME280;40891;47.242;8.648;2024-03-25T06:50:18;95619.00;;;5.23;100.00
54994;BME280;40891;47.242;8.648;2024-03-25T06:52:43;95612.94;;;5.28;100.00
54994;BME280;40891;47.242;8.648;2024-03-25T06:55:08;95611.63;;;5.33;100.00
54994;BME280;40891;47.242;8.648;2024-03-25T06:57:34;95621.00;;;5.35;100.00
54994;BME280;40891;47.242;8.648;2024-03-25T06:59:59;95605.13;;;5.39;100.00
54994;BME280;40891;47.242;8.648;2024-03-25T07:02:25;95605.16;;;5.52;100.00
54994;BME280;40891;47.242;8.648;2024-03-25T07:04:50;95595.38;;;5.51;100.00
54994;BME280;40891;47.242;8.648;2024-03-25T07:07:15;95598.44;;;5.40;100.00
54994;BME280;40891;47.242;8.648;2024-03-25T07:09:40;95599.00;;;5.48;100.00
54994;BME280;40891;47.242;8.648;2024-03-25T07:12:06;95597.78;;;5.49;100.00
54994;BME280;40891;47.242;8.648;2024-03-25T07:14:32;95597.78;;;5.49;100.00
54994;BME280;40891;47.242;8.648;2024-03-25T07:16:57;95593.03;;;5.49;100.00
54994;BME280;40891;47.242;8.648;2024-03-25T07:19:22;95591.28;;;5.56;100.00
54994;BME280;40891;47.242;8.648;2024-03-25T07:21:48;95594.91;;;5.53;100.00
54994;BME280;40891;47.242;8.648;2024-03-25T07:24:13;95584.00;;;5.62;100.00
54994;BME280;40891;47.242;8.648;2024-03-25T07:26:39;95573.09;;;5.71;100.00
54994;BME280;40891;47.242;8.648;2024-03-25T07:29:04;95581.16;;;5.78;100.00
54994;BME280;40891;47.242;8.648;2024-03-25T07:31:29;95578.28;;;5.81;100.00
54994;BME280;40891;47.242;8.648;2024-03-25T07:33:54;95569.50;;;5.86;100.00
54994;BME280;40891;47.242;8.648;2024-03-25T07:36:20;95574.47;;;5.91;100.00
54994;BME280;40891;47.242;8.648;2024-03-25T07:38:45;95564.72;;;5.99;100.00
54994;BME280;40891;47.242;8.648;2024-03-25T07:41:10;95569.03;;;6.13;99.41
54994;BME280;40891;47.242;8.648;2024-03-25T07:43:36;95561.28;;;6.21;98.60
54994;BME280;40891;47.242;8.648;2024-03-25T07:46:02;95557.97;;;6.26;96.54
54994;BME280;40891;47.242;8.648;2024-03-25T07:48:27;95560.38;;;6.36;97.13
54994;BME280;40891;47.242;8.648;2024-03-25T07:50:52;95560.16;;;6.43;96.32
54994;BME280;40891;47.242;8.648;2024-03-25T07:53:18;95555.03;;;6.54;94.26
54994;BME280;40891;47.242;8.648;2024-03-25T07:55:43;95552.59;;;6.56;92.77
54994;BME280;40891;47.242;8.648;2024-03-25T07:58:08;95553.81;;;6.55;94.94
54994;BME280;40891;47.242;8.648;2024-03-25T08:00:34;95543.59;;;6.65;88.16
54994;BME280;40891;47.242;8.648;2024-03-25T08:02:59;95541.94;;;6.67;87.06
54994;BME280;40891;47.242;8.648;2024-03-25T08:05:25;95530.88;;;6.67;90.80
54994;BME280;40891;47.242;8.648;2024-03-25T08:07:50;95537.59;;;6.79;90.50
54994;BME280;40891;47.242;8.648;2024-03-25T08:10:15;95523.66;;;6.82;86.94
54994;BME280;40891;47.242;8.648;2024-03-25T08:12:41;95528.28;;;6.85;86.41
54994;BME280;40891;47.242;8.648;2024-03-25T08:15:06;95518.81;;;6.96;85.53
54994;BME280;40891;47.242;8.648;2024-03-25T08:17:33;95512.13;;;7.06;84.89
54994;BME280;40891;47.242;8.648;2024-03-25T08:19:58;95514.31;;;7.11;84.27
54994;BME280;40891;47.242;8.648;2024-03-25T08:22:23;95507.00;;;7.17;84.84
54994;BME280;40891;47.242;8.648;2024-03-25T08:24:49;95513.47;;;7.23;80.19
54994;BME280;40891;47.242;8.648;2024-03-25T08:27:14;95504.41;;;7.22;84.80
54994;BME280;40891;47.242;8.648;2024-03-25T08:29:40;95503.09;;;7.36;81.51
54994;BME280;40891;47.242;8.648;2024-03-25T08:32:05;95498.06;;;7.43;83.61
54994;BME280;40891;47.242;8.648;2024-03-25T08:34:31;95490.31;;;7.60;83.50
54994;BME280;40891;47.242;8.648;2024-03-25T08:36:56;95488.03;;;7.68;81.13
54994;BME280;40891;47.242;8.648;2024-03-25T08:39:22;95482.72;;;7.82;79.39
54994;BME280;40891;47.242;8.648;2024-03-25T08:41:47;95473.03;;;7.96;81.92
54994;BME280;40891;47.242;8.648;2024-03-25T08:44:13;95469.56;;;8.22;81.09
54994;BME280;40891;47.242;8.648;2024-03-25T08:46:39;95469.16;;;8.51;77.72
54994;BME280;40891;47.242;8.648;2024-03-25T08:49:04;95470.06;;;8.94;77.68
54994;BME280;40891;47.242;8.648;2024-03-25T08:51:29;95469.84;;;9.24;72.18
54994;BME280;40891;47.242;8.648;2024-03-25T08:53:55;95463.59;;;9.47;71.28
54994;BME280;40891;47.242;8.648;2024-03-25T08:56:20;95459.22;;;9.65;67.41
54994;BME280;40891;47.242;8.648;2024-03-25T08:58:45;95456.53;;;9.79;68.45
54994;BME280;40891;47.242;8.648;2024-03-25T09:01:10;95452.53;;;10.04;65.41
54994;BME280;40891;47.242;8.648;2024-03-25T09:03:39;95444.19;;;10.04;65.08
54994;BME280;40891;47.242;8.648;2024-03-25T09:06:04;95437.38;;;10.38;64.18
54994;BME280;40891;47.242;8.648;2024-03-25T09:08:30;95429.47;;;10.74;65.00
54994;BME280;40891;47.242;8.648;2024-03-25T09:11:02;95417.34;;;11.16;60.55
54994;BME280;40891;47.242;8.648;2024-03-25T09:13:32;95409.06;;;11.36;58.72
54994;BME280;40891;47.242;8.648;2024-03-25T09:15:58;95405.88;;;11.57;59.80
54994;BME280;40891;47.242;8.648;2024-03-25T09:18:23;95406.94;;;11.75;57.79
54994;BME280;40891;47.242;8.648;2024-03-25T09:20:48;95405.94;;;12.33;57.52
54994;BME280;40891;47.242;8.648;2024-03-25T09:23:14;95404.09;;;12.50;55.10
54994;BME280;40891;47.242;8.648;2024-03-25T09:25:39;95405.25;;;12.83;52.55
54994;BME280;40891;47.242;8.648;2024-03-25T09:28:05;95386.78;;;13.12;51.62
54994;BME280;40891;47.242;8.648;2024-03-25T09:30:34;95398.72;;;13.75;49.00
54994;BME280;40891;47.242;8.648;2024-03-25T09:32:59;95382.13;;;14.50;47.30
54994;BME280;40891;47.242;8.648;2024-03-25T09:35:25;95369.09;;;15.56;42.73
54994;BME280;40891;47.242;8.648;2024-03-25T09:37:50;95363.31;;;16.91;38.83
54994;BME280;40891;47.242;8.648;2024-03-25T09:40:15;95355.34;;;17.71;37.85
54994;BME280;40891;47.242;8.648;2024-03-25T09:45:16;95349.44;;;19.72;33.99
54994;BME280;40891;47.242;8.648;2024-03-25T09:47:45;95349.72;;;20.00;33.13
54994;BME280;40891;47.242;8.648;2024-03-25T09:50:14;95344.91;;;20.53;31.99
54994;BME280;40891;47.242;8.648;2024-03-25T09:52:49;95329.50;;;20.88;32.35
54994;BME280;40891;47.242;8.648;2024-03-25T09:55:15;95322.13;;;21.52;29.76
54994;BME280;40891;47.242;8.648;2024-03-25T09:57:41;95316.53;;;22.01;29.32
54994;BME280;40891;47.242;8.648;2024-03-25T10:00:08;95312.66;;;22.40;28.79
54994;BME280;40891;47.242;8.648;2024-03-25T10:02:35;95305.63;;;22.69;28.18
54994;BME280;40891;47.242;8.648;2024-03-25T10:05:01;95301.50;;;23.21;27.86
54994;BME280;40891;47.242;8.648;2024-03-25T10:07:28;95299.31;;;22.56;28.91
54994;BME280;40891;47.242;8.648;2024-03-25T10:09:53;95290.59;;;22.82;27.77
54994;BME280;40891;47.242;8.648;2024-03-25T10:12:18;95291.53;;;22.49;27.56
54994;BME280;40891;47.242;8.648;2024-03-25T10:14:45;95280.03;;;22.90;27.62
54994;BME280;40891;47.242;8.648;2024-03-25T10:17:10;95275.09;;;22.90;27.42
54994;BME280;40891;47.242;8.648;2024-03-25T10:19:36;95266.19;;;23.37;26.77
54994;BME280;40891;47.242;8.648;2024-03-25T10:22:07;95253.63;;;23.18;27.08
54994;BME280;40891;47.242;8.648;2024-03-25T10:24:45;95256.00;;;23.87;26.51
54994;BME280;40891;47.242;8.648;2024-03-25T10:27:17;95252.88;;;24.46;25.28
54994;BME280;40891;47.242;8.648;2024-03-25T10:29:54;95251.22;;;24.05;26.05
54994;BME280;40891;47.242;8.648;2024-03-25T10:32:22;95248.41;;;24.12;26.71
54994;BME280;40891;47.242;8.648;2024-03-25T10:34:53;95246.41;;;24.53;25.30
54994;BME280;40891;47.242;8.648;2024-03-25T10:37:19;95236.09;;;24.02;25.96
54994;BME280;40891;47.242;8.648;2024-03-25T10:39:49;95238.75;;;24.70;25.98
54994;BME280;40891;47.242;8.648;2024-03-25T10:42:18;95237.06;;;25.72;24.04
54994;BME280;40891;47.242;8.648;2024-03-25T10:44:44;95238.88;;;26.01;23.03
54994;BME280;40891;47.242;8.648;2024-03-25T10:47:14;95237.44;;;25.93;24.19
54994;BME280;40891;47.242;8.648;2024-03-25T10:49:48;95236.09;;;26.53;24.19
54994;BME280;40891;47.242;8.648;2024-03-25T10:52:15;95225.03;;;26.57;23.54
54994;BME280;40891;47.242;8.648;2024-03-25T10:54:43;95208.34;;;27.24;22.40
54994;BME280;40891;47.242;8.648;2024-03-25T10:57:11;95211.22;;;26.97;22.64
54994;BME280;40891;47.242;8.648;2024-03-25T10:59:37;95201.75;;;27.48;22.40
54994;BME280;40891;47.242;8.648;2024-03-25T11:02:06;95196.91;;;28.71;20.36
54994;BME280;40891;47.242;8.648;2024-03-25T11:04:32;95190.84;;;28.19;20.61
54994;BME280;40891;47.242;8.648;2024-03-25T11:07:09;95181.06;;;28.31;21.29
54994;BME280;40891;47.242;8.648;2024-03-25T11:09:34;95176.13;;;28.61;21.27
54994;BME280;40891;47.242;8.648;2024-03-25T11:12:00;95170.78;;;29.05;20.60
54994;BME280;40891;47.242;8.648;2024-03-25T11:14:25;95156.13;;;29.91;19.34
54994;BME280;40891;47.242;8.648;2024-03-25T11:16:52;95154.47;;;29.67;20.08
54994;BME280;40891;47.242;8.648;2024-03-25T11:19:18;95150.50;;;28.91;20.43
54994;BME280;40891;47.242;8.648;2024-03-25T11:21:44;95150.81;;;28.67;19.94
54994;BME280;40891;47.242;8.648;2024-03-25T11:24:09;95131.91;;;29.02;18.07
54994;BME280;40891;47.242;8.648;2024-03-25T11:26:35;95126.97;;;29.43;18.24
54994;BME280;40891;47.242;8.648;2024-03-25T11:29:05;95120.34;;;29.40;18.41
54994;BME280;40891;47.242;8.648;2024-03-25T11:31:33;95110.50;;;30.05;17.43
54994;BME280;40891;47.242;8.648;2024-03-25T11:34:04;95112.34;;;30.00;18.17
54994;BME280;40891;47.242;8.648;2024-03-25T11:36:29;95105.97;;;30.23;16.70
54994;BME280;40891;47.242;8.648;2024-03-25T11:39:03;95110.00;;;29.56;16.81
54994;BME280;40891;47.242;8.648;2024-03-25T11:41:31;95100.88;;;29.39;16.81
54994;BME280;40891;47.242;8.648;2024-03-25T11:43:57;95098.16;;;29.72;17.41
54994;BME280;40891;47.242;8.648;2024-03-25T11:46:25;95098.03;;;29.70;17.13
54994;BME280;40891;47.242;8.648;2024-03-25T11:48:50;95096.31;;;29.24;16.95
54994;BME280;40891;47.242;8.648;2024-03-25T11:51:22;95094.69;;;29.02;17.26
54994;BME280;40891;47.242;8.648;2024-03-25T11:53:47;95093.59;;;28.57;18.24
54994;BME280;40891;47.242;8.648;2024-03-25T11:56:13;95083.94;;;28.72;17.38
54994;BME280;40891;47.242;8.648;2024-03-25T11:58:39;95082.63;;;28.35;18.47
54994;BME280;40891;47.242;8.648;2024-03-25T12:01:05;95073.56;;;27.90;18.26
54994;BME280;40891;47.242;8.648;2024-03-25T12:03:30;95066.97;;;27.97;19.12
54994;BME280;40891;47.242;8.648;2024-03-25T12:05:56;95065.91;;;28.31;17.69
54994;BME280;40891;47.242;8.648;2024-03-25T12:08:23;95063.47;;;28.66;17.36
54994;BME280;40891;47.242;8.648;2024-03-25T12:10:51;95057.13;;;28.77;17.40
54994;BME280;40891;47.242;8.648;2024-03-25T12:13:37;95040.19;;;29.31;17.71
54994;BME280;40891;47.242;8.648;2024-03-25T12:16:06;95050.19;;;28.70;17.06
54994;BME280;40891;47.242;8.648;2024-03-25T12:18:33;95037.31;;;29.31;16.63
54994;BME280;40891;47.242;8.648;2024-03-25T12:20:58;95023.75;;;29.31;17.47
54994;BME280;40891;47.242;8.648;2024-03-25T12:23:29;95019.09;;;29.78;16.33
54994;BME280;40891;47.242;8.648;2024-03-25T12:25:54;95014.25;;;29.81;16.68
54994;BME280;40891;47.242;8.648;2024-03-25T12:28:21;95015.53;;;30.22;16.59
54994;BME280;40891;47.242;8.648;2024-03-25T12:30:51;95005.66;;;30.13;16.65
54994;BME280;40891;47.242;8.648;2024-03-25T12:33:17;95000.66;;;30.47;16.24
54994;BME280;40891;47.242;8.648;2024-03-25T12:35:45;94994.09;;;29.90;16.23
54994;BME280;40891;47.242;8.648;2024-03-25T12:38:22;94989.03;;;30.00;16.55
54994;BME280;40891;47.242;8.648;2024-03-25T12:40:47;94980.97;;;29.66;15.97
54994;BME280;40891;47.242;8.648;2024-03-25T12:43:16;94964.13;;;30.70;15.24
54994;BME280;40891;47.242;8.648;2024-03-25T12:45:41;94963.72;;;29.54;15.88
54994;BME280;40891;47.242;8.648;2024-03-25T12:48:08;94958.59;;;29.32;15.86
54994;BME280;40891;47.242;8.648;2024-03-25T12:50:33;94951.78;;;28.45;16.88
54994;BME280;40891;47.242;8.648;2024-03-25T12:52:59;94940.03;;;28.00;17.34
54994;BME280;40891;47.242;8.648;2024-03-25T12:55:24;94942.44;;;28.04;17.98
54994;BME280;40891;47.242;8.648;2024-03-25T12:57:49;94928.41;;;28.58;16.91
54994;BME280;40891;47.242;8.648;2024-03-25T13:00:15;94936.97;;;28.98;16.65